Time;durP1;ratioP1;P1;durP2;ratioP2;P2;SDS_P1;SDS_P2;PMS_P1;PMS_P2;Temp;Humidity;BMP_temperature;BMP_pressure;BME280_temperature;BME280_humidity;BME280_pressure;Samples;Min_cycle;Max_cycle;Signal;HPM_P1;HPM_P2
2023/11/23 00:00:07;;;;;;;10.73;3.88;;;5.20;99.20;;;;;;4987142;28;20074;-84
2023/11/23 00:02:33;;;;;;;8.80;4.03;;;5.20;99.30;;;;;;4991745;28;20040;-85
2023/11/23 00:04:58;;;;;;;9.52;3.53;;;5.20;99.40;;;;;;4991225;28;20518;-84
2023/11/23 00:07:23;;;;;;;7.70;3.05;;;5.20;99.60;;;;;;4985697;28;20026;-85
2023/11/23 00:09:49;;;;;;;8.52;3.63;;;5.30;99.70;;;;;;5002121;28;20467;-83
2023/11/23 00:12:15;;;;;;;8.88;3.97;;;5.40;99.60;;;;;;4984848;28;20112;-85
2023/11/23 00:14:40;;;;;;;9.73;4.68;;;5.40;99.70;;;;;;4985826;28;20037;-86
2023/11/23 00:17:06;;;;;;;7.05;4.05;;;5.40;99.80;;;;;;4989793;28;20041;-85
2023/11/23 00:19:31;;;;;;;8.93;3.95;;;5.50;99.90;;;;;;4983238;28;20062;-84
2023/11/23 00:21:57;;;;;;;7.82;4.18;;;5.50;99.90;;;;;;4980196;28;20451;-84
2023/11/23 00:24:23;;;;;;;8.27;4.00;;;5.50;99.90;;;;;;4988381;28;20106;-85
2023/11/23 00:26:51;;;;;;;9.10;4.13;;;5.50;99.90;;;;;;4989545;28;20050;-86
2023/11/23 00:29:16;;;;;;;8.65;3.53;;;5.50;99.90;;;;;;4982575;28;20494;-85
2023/11/23 00:31:42;;;;;;;8.73;5.13;;;5.50;99.90;;;;;;4984144;28;20030;-84
2023/11/23 00:34:08;;;;;;;11.35;4.65;;;5.50;99.90;;;;;;4987240;28;20027;-85
2023/11/23 00:36:35;;;;;;;11.07;4.25;;;5.60;99.90;;;;;;4984667;28;20034;-86
2023/11/23 00:39:00;;;;;;;7.85;4.05;;;5.60;99.90;;;;;;4986405;28;20053;-86
2023/11/23 00:41:26;;;;;;;8.38;4.00;;;5.60;99.90;;;;;;4986100;28;20080;-85
2023/11/23 00:43:51;;;;;;;8.57;4.00;;;5.60;99.90;;;;;;4985637;28;20030;-85
2023/11/23 00:46:17;;;;;;;9.40;4.50;;;5.60;99.90;;;;;;4978143;28;20046;-85
2023/11/23 00:48:42;;;;;;;11.13;4.30;;;5.70;99.90;;;;;;4980818;28;20483;-85
2023/11/23 00:51:08;;;;;;;9.73;5.15;;;5.80;99.90;;;;;;4989906;28;20070;-85
2023/11/23 00:53:33;;;;;;;8.32;4.55;;;5.70;99.90;;;;;;4986016;28;20121;-87
2023/11/23 00:56:01;;;;;;;10.60;5.05;;;5.80;99.90;;;;;;4983038;28;20443;-87
2023/11/23 00:58:26;;;;;;;10.65;4.88;;;5.90;99.90;;;;;;4981991;28;20023;-87
2023/11/23 01:00:52;;;;;;;7.60;4.47;;;5.90;99.90;;;;;;4987527;28;20475;-87
2023/11/23 01:03:18;;;;;;;8.25;4.50;;;5.90;99.90;;;;;;4993114;28;20030;-87
2023/11/23 01:05:44;;;;;;;9.73;4.50;;;6.00;99.90;;;;;;4986105;28;20022;-87
2023/11/23 01:08:10;;;;;;;8.43;4.38;;;6.00;99.90;;;;;;4983283;28;20030;-88
2023/11/23 01:10:36;;;;;;;9.45;4.45;;;6.10;99.90;;;;;;4988789;28;20088;-87
2023/11/23 01:13:01;;;;;;;9.02;4.68;;;6.10;99.90;;;;;;4979677;28;20030;-86
2023/11/23 01:15:27;;;;;;;7.60;3.97;;;6.20;99.90;;;;;;4981482;28;20035;-85
2023/11/23 01:17:52;;;;;;;10.07;4.63;;;6.20;99.90;;;;;;4986035;28;20130;-87
2023/11/23 01:20:19;;;;;;;8.98;4.15;;;6.20;99.90;;;;;;4985808;28;20073;-86
2023/11/23 01:22:45;;;;;;;7.72;4.57;;;6.30;99.90;;;;;;4977199;28;20413;-87
2023/11/23 01:25:10;;;;;;;7.60;4.53;;;6.30;99.90;;;;;;4976898;28;20026;-86
2023/11/23 01:27:36;;;;;;;8.63;4.80;;;6.30;99.90;;;;;;4985175;28;20505;-87
2023/11/23 01:30:02;;;;;;;9.32;4.45;;;6.30;99.90;;;;;;4977076;28;20057;-87
2023/11/23 01:32:27;;;;;;;9.07;4.95;;;6.30;99.90;;;;;;4977464;28;20477;-86
2023/11/23 01:34:53;;;;;;;7.50;4.18;;;6.40;99.90;;;;;;4988170;28;20038;-86
2023/11/23 01:37:18;;;;;;;7.45;3.80;;;6.50;99.90;;;;;;4986044;28;20092;-87
2023/11/23 01:39:44;;;;;;;8.80;4.30;;;6.50;99.90;;;;;;4979876;28;20105;-87
2023/11/23 01:42:09;;;;;;;10.15;4.50;;;6.50;99.90;;;;;;4995429;28;20030;-87
2023/11/23 01:44:35;;;;;;;8.38;4.80;;;6.60;99.90;;;;;;4983385;28;20037;-86
2023/11/23 01:47:04;;;;;;;9.93;5.57;;;6.60;99.90;;;;;;4979086;28;20081;-87
2023/11/23 01:49:34;;;;;;;9.18;4.75;;;6.60;99.90;;;;;;4981563;28;20414;-87
2023/11/23 01:52:00;;;;;;;8.95;4.30;;;6.70;99.90;;;;;;4982121;28;20011;-86
2023/11/23 01:54:25;;;;;;;8.27;4.20;;;6.70;99.90;;;;;;4985476;28;20026;-87
2023/11/23 01:56:52;;;;;;;9.90;4.78;;;6.70;99.90;;;;;;4981985;28;20039;-86
2023/11/23 01:59:18;;;;;;;9.85;4.80;;;6.80;99.90;;;;;;4981622;28;20026;-87
2023/11/23 02:01:44;;;;;;;8.55;4.45;;;6.80;99.90;;;;;;4975822;28;20031;-87
2023/11/23 02:04:10;;;;;;;9.38;5.05;;;6.80;99.90;;;;;;4981396;28;20026;-87
2023/11/23 02:06:35;;;;;;;9.90;5.22;;;6.80;99.90;;;;;;4987234;28;20027;-87
2023/11/23 02:09:01;;;;;;;11.82;5.10;;;6.90;99.90;;;;;;4986654;28;20022;-88
2023/11/23 02:11:26;;;;;;;8.05;4.47;;;6.90;99.90;;;;;;4980722;28;20089;-86
2023/11/23 02:13:54;;;;;;;12.00;5.20;;;6.80;99.90;;;;;;4973071;28;20134;-87
2023/11/23 02:16:19;;;;;;;10.48;4.88;;;6.90;99.90;;;;;;4979801;28;20027;-87
2023/11/23 02:18:45;;;;;;;9.48;5.50;;;6.90;99.90;;;;;;4980369;28;20357;-87
2023/11/23 02:21:11;;;;;;;9.32;4.63;;;6.80;99.90;;;;;;4976575;28;20027;-86
2023/11/23 02:23:36;;;;;;;10.57;5.35;;;6.80;99.90;;;;;;4981320;28;20360;-87
2023/11/23 02:26:02;;;;;;;10.63;5.60;;;6.80;99.90;;;;;;4987888;28;20160;-87
2023/11/23 02:28:29;;;;;;;9.70;4.60;;;6.80;99.90;;;;;;4987104;28;20085;-87
2023/11/23 02:30:54;;;;;;;9.27;4.38;;;6.80;99.90;;;;;;4980256;28;20031;-86
2023/11/23 02:33:20;;;;;;;7.78;4.30;;;6.80;99.90;;;;;;4987431;28;20022;-86
2023/11/23 02:35:45;;;;;;;11.25;4.68;;;6.80;99.90;;;;;;4986561;28;20035;-87
2023/11/23 02:38:11;;;;;;;9.23;5.32;;;6.80;99.90;;;;;;4980735;28;20475;-86
2023/11/23 02:40:36;;;;;;;11.77;5.60;;;6.80;99.90;;;;;;4992954;28;20060;-85
2023/11/23 02:43:06;;;;;;;9.75;5.15;;;6.90;99.90;;;;;;4984934;28;20034;-86
2023/11/23 02:45:32;;;;;;;9.67;4.47;;;6.90;99.90;;;;;;4984527;28;20047;-87
2023/11/23 02:47:57;;;;;;;9.98;5.30;;;6.90;99.90;;;;;;4985666;28;20317;-87
2023/11/23 02:50:23;;;;;;;9.98;5.70;;;7.00;99.90;;;;;;4987397;28;20038;-85
2023/11/23 02:52:48;;;;;;;12.15;5.82;;;7.00;99.90;;;;;;4983877;28;20094;-84
2023/11/23 02:55:14;;;;;;;11.85;5.80;;;6.90;99.90;;;;;;4974258;28;20033;-81
2023/11/23 02:57:42;;;;;;;11.70;5.50;;;7.00;99.90;;;;;;4984149;28;20030;-86
2023/11/23 03:00:08;;;;;;;10.75;5.80;;;7.00;99.90;;;;;;4988093;28;20033;-86
2023/11/23 03:02:33;;;;;;;12.27;5.60;;;7.00;99.90;;;;;;4984286;28;20102;-86
2023/11/23 03:04:58;;;;;;;12.27;6.65;;;7.10;99.90;;;;;;4982212;28;20046;-87
2023/11/23 03:07:24;;;;;;;12.05;6.50;;;7.10;99.90;;;;;;4978736;28;20045;-87
2023/11/23 03:09:49;;;;;;;14.63;6.57;;;7.10;99.90;;;;;;4985563;28;20030;-86
2023/11/23 03:12:16;;;;;;;10.07;4.97;;;7.10;99.90;;;;;;4980972;28;20023;-87
2023/11/23 03:14:41;;;;;;;11.63;6.28;;;7.20;99.90;;;;;;4984563;28;20026;-86
2023/11/23 03:17:07;;;;;;;12.25;5.25;;;7.20;99.90;;;;;;4986878;28;20035;-86
2023/11/23 03:19:33;;;;;;;11.30;4.35;;;7.20;99.90;;;;;;4984281;28;20037;-86
2023/11/23 03:21:58;;;;;;;16.05;6.78;;;7.20;99.90;;;;;;4985883;28;20030;-86
2023/11/23 03:24:24;;;;;;;11.38;5.95;;;7.30;99.90;;;;;;4993605;28;20035;-86
2023/11/23 03:26:49;;;;;;;12.02;5.70;;;7.30;99.90;;;;;;4986651;28;20124;-86
2023/11/23 03:29:16;;;;;;;12.57;6.75;;;7.30;99.90;;;;;;4990572;28;20042;-87
2023/11/23 03:31:41;;;;;;;10.52;5.80;;;7.40;99.90;;;;;;4992754;28;20511;-86
2023/11/23 03:34:07;;;;;;;11.85;5.45;;;7.30;99.90;;;;;;4987466;28;20026;-85
2023/11/23 03:36:32;;;;;;;13.13;5.75;;;7.40;99.90;;;;;;4983577;28;20058;-87
2023/11/23 03:38:58;;;;;;;12.98;6.28;;;7.40;99.90;;;;;;4984484;28;20027;-87
2023/11/23 03:41:24;;;;;;;10.30;6.03;;;7.40;99.90;;;;;;4998943;28;20039;-86
2023/11/23 03:43:50;;;;;;;10.65;5.68;;;7.40;99.90;;;;;;4992610;28;20002;-86
2023/11/23 03:46:15;;;;;;;10.25;6.15;;;7.50;99.90;;;;;;4999265;28;20106;-86
2023/11/23 03:48:41;;;;;;;10.88;6.13;;;7.50;99.90;;;;;;5005531;28;20026;-86
2023/11/23 03:51:10;;;;;;;11.38;6.47;;;7.50;99.90;;;;;;4994295;28;20528;-85
2023/11/23 03:53:36;;;;;;;10.95;5.85;;;7.50;99.90;;;;;;4982545;28;20550;-86
2023/11/23 03:56:01;;;;;;;12.73;6.35;;;7.60;99.90;;;;;;4992897;28;20030;-86
2023/11/23 03:58:26;;;;;;;10.73;5.95;;;7.60;99.90;;;;;;4999012;28;20038;-85
2023/11/23 04:00:52;;;;;;;10.20;5.53;;;7.60;99.90;;;;;;5001884;28;20146;-85
2023/11/23 04:03:18;;;;;;;14.07;6.22;;;7.60;99.90;;;;;;5008432;28;20033;-85
2023/11/23 04:05:43;;;;;;;10.35;5.68;;;7.60;99.90;;;;;;4997032;28;20038;-86
2023/11/23 04:08:09;;;;;;;8.45;5.32;;;7.60;99.90;;;;;;4989859;28;20038;-86
2023/11/23 04:10:35;;;;;;;11.15;5.50;;;7.70;99.90;;;;;;4999739;28;20026;-85
2023/11/23 04:13:00;;;;;;;11.80;6.05;;;7.70;99.90;;;;;;4985451;28;20045;-84
2023/11/23 04:15:26;;;;;;;10.93;5.78;;;7.80;99.90;;;;;;4979138;28;20038;-84
2023/11/23 04:17:52;;;;;;;11.55;5.35;;;7.80;99.90;;;;;;4980963;28;20348;-85
2023/11/23 04:20:17;;;;;;;8.57;4.63;;;7.80;99.90;;;;;;4990478;28;20027;-85
2023/11/23 04:22:43;;;;;;;10.43;5.93;;;7.80;99.90;;;;;;4980674;28;20133;-87
2023/11/23 04:25:08;;;;;;;9.40;5.28;;;7.80;99.90;;;;;;4982229;28;20034;-86
2023/11/23 04:27:34;;;;;;;11.50;6.05;;;7.80;99.90;;;;;;4974426;28;20030;-85
2023/11/23 04:29:59;;;;;;;11.32;6.55;;;7.90;99.90;;;;;;4983057;28;20106;-85
2023/11/23 04:32:25;;;;;;;9.05;4.88;;;7.90;99.90;;;;;;4990197;28;20058;-85
2023/11/23 04:34:50;;;;;;;11.43;6.07;;;7.90;99.90;;;;;;4990505;28;20026;-87
2023/11/23 04:37:17;;;;;;;13.02;6.47;;;8.00;99.90;;;;;;4988324;28;20037;-87
2023/11/23 04:39:43;;;;;;;11.82;6.05;;;8.00;99.90;;;;;;4985871;28;20442;-87
2023/11/23 04:42:08;;;;;;;9.77;5.55;;;8.00;99.90;;;;;;4987883;28;20065;-86
2023/11/23 04:44:34;;;;;;;10.75;6.38;;;8.00;99.90;;;;;;4987596;28;20080;-85
2023/11/23 04:46:59;;;;;;;10.25;5.65;;;8.10;99.90;;;;;;4985864;28;20452;-87
2023/11/23 04:49:25;;;;;;;10.32;5.47;;;8.10;99.90;;;;;;4984750;28;20033;-87
2023/11/23 04:51:51;;;;;;;11.68;6.53;;;8.10;99.90;;;;;;4992432;28;20015;-86
2023/11/23 04:56:50;;;;;;;10.48;6.10;;;8.30;99.90;;;;;;5030073;28;20580;-85
2023/11/23 04:59:15;;;;;;;10.48;5.95;;;8.30;99.90;;;;;;5028357;28;20050;-85
2023/11/23 05:01:41;;;;;;;12.63;6.07;;;8.30;99.90;;;;;;5057155;23;20061;-89
2023/11/23 05:04:06;;;;;;;12.57;6.53;;;8.30;99.90;;;;;;5000620;28;20038;-88
2023/11/23 05:06:32;;;;;;;12.25;6.57;;;8.30;99.90;;;;;;4992754;28;20039;-89
2023/11/23 05:08:58;;;;;;;15.35;6.55;;;8.40;99.90;;;;;;5002237;28;20054;-90
2023/11/23 05:11:23;;;;;;;12.27;6.47;;;8.40;99.90;;;;;;5007013;28;20034;-90
2023/11/23 05:13:49;;;;;;;13.25;6.38;;;8.40;99.90;;;;;;5003868;28;20045;-90
2023/11/23 05:16:14;;;;;;;11.95;6.60;;;8.40;99.90;;;;;;5005503;28;20037;-90
2023/11/23 05:18:40;;;;;;;12.63;6.35;;;8.50;99.90;;;;;;5011151;28;20023;-90
2023/11/23 05:21:06;;;;;;;11.70;6.47;;;8.50;99.90;;;;;;4999828;28;20031;-89
2023/11/23 05:23:31;;;;;;;27.75;6.85;;;8.50;99.90;;;;;;5002674;28;20031;-89
2023/11/23 05:25:57;;;;;;;10.00;6.32;;;8.50;99.90;;;;;;5004469;28;20107;-88
2023/11/23 05:28:23;;;;;;;11.07;6.03;;;8.60;99.90;;;;;;4994854;28;20031;-90
2023/11/23 05:30:48;;;;;;;13.75;7.00;;;8.60;99.90;;;;;;4999957;28;20081;-92
2023/11/23 05:33:14;;;;;;;12.73;5.38;;;8.60;99.90;;;;;;5004644;28;20097;-90
2023/11/23 05:35:40;;;;;;;15.57;6.70;;;8.60;99.90;;;;;;5016722;28;20022;-91
2023/11/23 05:38:05;;;;;;;11.45;6.68;;;8.70;99.90;;;;;;4999306;28;20026;-90
2023/11/23 05:40:31;;;;;;;11.95;6.05;;;8.70;99.90;;;;;;5001627;28;20054;-91
2023/11/23 05:42:57;;;;;;;12.23;7.07;;;8.70;99.90;;;;;;5002399;28;20038;-90
2023/11/23 05:45:23;;;;;;;13.48;6.90;;;8.70;99.90;;;;;;5005049;28;20090;-90
2023/11/23 05:47:48;;;;;;;13.20;6.35;;;8.70;99.90;;;;;;5003393;28;20053;-90
2023/11/23 05:50:14;;;;;;;15.18;7.57;;;8.80;99.90;;;;;;5005582;28;20030;-89
2023/11/23 05:52:41;;;;;;;10.85;6.35;;;8.80;99.90;;;;;;5001401;28;20030;-91
2023/11/23 05:55:07;;;;;;;11.68;6.95;;;8.80;99.90;;;;;;5003066;28;20099;-90
2023/11/23 05:57:33;;;;;;;12.80;7.68;;;8.90;99.90;;;;;;4991535;28;20035;-90
2023/11/23 05:59:58;;;;;;;12.38;6.13;;;8.90;99.90;;;;;;4973743;28;20504;-89
2023/11/23 06:02:24;;;;;;;11.32;6.35;;;8.90;99.90;;;;;;4970766;28;20167;-88
2023/11/23 06:04:49;;;;;;;13.00;6.95;;;8.90;99.90;;;;;;4995477;28;20110;-90
2023/11/23 06:07:15;;;;;;;11.30;6.38;;;9.00;99.90;;;;;;4977073;28;20030;-89
2023/11/23 06:09:42;;;;;;;8.73;5.53;;;8.90;99.90;;;;;;4985062;28;20023;-88
2023/11/23 06:12:08;;;;;;;10.43;6.13;;;9.00;99.90;;;;;;4991043;28;20078;-88
2023/11/23 06:14:36;;;;;;;12.82;6.85;;;9.00;99.90;;;;;;4990627;28;20030;-89
2023/11/23 06:17:04;;;;;;;10.00;6.15;;;9.00;99.90;;;;;;4974103;28;20117;-89
2023/11/23 06:19:29;;;;;;;11.82;6.40;;;9.10;99.90;;;;;;4995891;28;20027;-89
2023/11/23 06:21:55;;;;;;;11.73;5.72;;;9.10;99.90;;;;;;4996587;28;20064;-89
2023/11/23 06:24:22;;;;;;;11.05;5.72;;;9.10;99.90;;;;;;4972252;28;20054;-87
2023/11/23 06:26:48;;;;;;;10.88;5.65;;;9.10;99.90;;;;;;4972313;28;20118;-87
2023/11/23 06:29:13;;;;;;;10.90;5.85;;;9.10;99.90;;;;;;4977032;28;20129;-86
2023/11/23 06:31:39;;;;;;;9.82;5.70;;;9.20;99.90;;;;;;4994996;28;20019;-85
2023/11/23 06:34:04;;;;;;;8.10;4.80;;;9.20;99.90;;;;;;4985107;28;20045;-86
2023/11/23 06:36:30;;;;;;;9.57;5.20;;;9.20;99.90;;;;;;4996712;28;20045;-87
2023/11/23 06:38:56;;;;;;;9.82;5.50;;;9.20;99.90;;;;;;4979276;28;20467;-84
2023/11/23 06:41:22;;;;;;;9.00;4.97;;;9.30;99.90;;;;;;4999474;28;20072;-85
2023/11/23 06:43:48;;;;;;;7.65;4.00;;;9.30;99.90;;;;;;4975966;28;20442;-87
2023/11/23 06:46:15;;;;;;;8.18;4.88;;;9.30;99.90;;;;;;4977730;28;20027;-88
2023/11/23 06:48:40;;;;;;;8.90;4.57;;;9.50;99.90;;;;;;4989572;28;20030;-89
2023/11/23 06:51:06;;;;;;;5.85;3.58;;;9.40;99.90;;;;;;5018266;23;20585;-79
2023/11/23 06:53:33;;;;;;;9.00;4.53;;;9.40;99.90;;;;;;4985418;28;20026;-80
2023/11/23 06:56:02;;;;;;;8.50;4.65;;;9.50;99.90;;;;;;4991912;28;20030;-78
2023/11/23 06:58:28;;;;;;;6.97;3.55;;;9.50;99.90;;;;;;4991739;28;20080;-79
2023/11/23 07:00:53;;;;;;;7.93;4.30;;;9.50;99.90;;;;;;4987425;28;20026;-77
2023/11/23 07:03:21;;;;;;;7.45;3.97;;;9.50;99.90;;;;;;4990565;28;20060;-77
2023/11/23 07:05:47;;;;;;;7.80;3.83;;;9.50;99.90;;;;;;4991395;28;20035;-79
2023/11/23 07:08:12;;;;;;;6.72;3.47;;;9.50;99.90;;;;;;4986584;28;20045;-79
2023/11/23 07:10:41;;;;;;;6.13;3.17;;;9.60;99.90;;;;;;4987379;28;20121;-79
2023/11/23 07:13:06;;;;;;;5.57;3.53;;;9.50;99.90;;;;;;4991084;28;20026;-78
2023/11/23 07:15:32;;;;;;;6.80;2.88;;;9.60;99.90;;;;;;4988507;28;20034;-79
2023/11/23 07:17:58;;;;;;;7.28;3.03;;;9.60;99.90;;;;;;4987597;28;20038;-78
2023/11/23 07:20:25;;;;;;;8.98;3.50;;;9.60;99.90;;;;;;4989993;28;20459;-79
2023/11/23 07:22:50;;;;;;;5.25;2.38;;;9.60;99.90;;;;;;4988640;28;20088;-79
2023/11/23 07:25:17;;;;;;;6.30;3.05;;;9.60;99.90;;;;;;4991129;28;20426;-79
2023/11/23 07:27:42;;;;;;;5.57;2.75;;;9.60;99.90;;;;;;4989248;28;20130;-79
2023/11/23 07:30:08;;;;;;;8.77;3.60;;;9.60;99.90;;;;;;4989829;28;20102;-79
2023/11/23 07:32:34;;;;;;;7.03;2.78;;;9.60;99.90;;;;;;4988366;28;20049;-79
2023/11/23 07:35:03;;;;;;;6.10;3.00;;;9.70;99.90;;;;;;4989288;28;20034;-78
2023/11/23 07:37:31;;;;;;;8.05;3.40;;;9.70;99.90;;;;;;4984321;28;20034;-80
2023/11/23 07:40:03;;;;;;;5.18;3.00;;;9.80;99.90;;;;;;4987831;28;20034;-79
2023/11/23 07:42:28;;;;;;;4.68;2.42;;;9.70;99.90;;;;;;4988165;28;20026;-79
2023/11/23 07:44:54;;;;;;;5.50;2.22;;;9.70;99.90;;;;;;4986947;28;20467;-80
2023/11/23 07:47:19;;;;;;;5.85;2.90;;;9.70;99.90;;;;;;4992886;28;20038;-80
2023/11/23 07:49:45;;;;;;;5.18;2.35;;;9.70;99.90;;;;;;4999724;28;20522;-80
2023/11/23 07:52:12;;;;;;;4.70;2.42;;;9.80;99.90;;;;;;4990448;28;20026;-80
2023/11/23 07:54:37;;;;;;;4.53;2.38;;;9.80;99.90;;;;;;4991637;28;20026;-80
2023/11/23 07:57:03;;;;;;;4.38;2.47;;;9.80;99.90;;;;;;4987957;28;20133;-79
2023/11/23 07:59:29;;;;;;;5.47;2.83;;;9.80;99.90;;;;;;4993213;28;20026;-79
2023/11/23 08:01:55;;;;;;;5.95;2.50;;;9.80;99.90;;;;;;4990804;28;20105;-79
2023/11/23 08:04:21;;;;;;;3.20;2.17;;;9.80;99.90;;;;;;4991438;28;20030;-79
2023/11/23 08:06:46;;;;;;;4.80;2.60;;;9.80;99.90;;;;;;4990915;28;20053;-79
2023/11/23 08:09:15;;;;;;;4.10;2.20;;;9.80;99.90;;;;;;5009893;28;20030;-79
2023/11/23 08:11:41;;;;;;;6.50;2.85;;;9.90;99.90;;;;;;4991545;28;20019;-79
2023/11/23 08:14:07;;;;;;;4.10;2.20;;;9.80;99.90;;;;;;4989736;28;20030;-79
2023/11/23 08:16:32;;;;;;;4.40;2.33;;;9.90;99.90;;;;;;4995141;28;20034;-79
2023/11/23 08:18:58;;;;;;;5.18;2.75;;;9.90;99.90;;;;;;4993840;28;20198;-79
2023/11/23 08:21:23;;;;;;;4.60;2.35;;;9.90;99.90;;;;;;4994803;28;20061;-80
2023/11/23 08:23:49;;;;;;;2.72;2.08;;;9.90;99.90;;;;;;4994023;28;20041;-79
2023/11/23 08:26:15;;;;;;;3.60;2.03;;;9.90;99.90;;;;;;4993183;28;20030;-79
2023/11/23 08:28:41;;;;;;;3.80;1.67;;;9.90;99.90;;;;;;4992654;28;20096;-80
2023/11/23 08:31:07;;;;;;;5.38;2.20;;;10.00;99.90;;;;;;4993910;28;20491;-79
2023/11/23 08:33:33;;;;;;;4.15;2.17;;;9.90;99.90;;;;;;4998866;28;20030;-79
2023/11/23 08:35:58;;;;;;;6.63;2.30;;;9.90;99.90;;;;;;4994599;28;20057;-80
2023/11/23 08:38:27;;;;;;;3.08;1.98;;;10.00;99.90;;;;;;4992711;28;20062;-79
2023/11/23 08:40:52;;;;;;;3.67;2.22;;;10.00;99.90;;;;;;4988908;28;20081;-79
2023/11/23 08:43:18;;;;;;;5.40;2.05;;;10.00;99.90;;;;;;4988898;28;20042;-80
2023/11/23 08:45:44;;;;;;;4.22;2.13;;;10.00;99.90;;;;;;4993562;28;20065;-80
2023/11/23 08:48:09;;;;;;;5.43;2.42;;;10.00;99.90;;;;;;4992667;28;20069;-79
2023/11/23 08:50:35;;;;;;;2.72;1.52;;;10.00;99.90;;;;;;4992317;28;20051;-79
2023/11/23 08:53:01;;;;;;;7.22;2.47;;;10.00;99.90;;;;;;4992737;28;20038;-79
2023/11/23 08:55:28;;;;;;;3.83;2.08;;;10.00;99.90;;;;;;4994289;28;20026;-79
2023/11/23 08:57:53;;;;;;;6.15;1.83;;;10.00;99.90;;;;;;4987289;28;20565;-79
2023/11/23 09:00:23;;;;;;;2.85;1.55;;;10.00;99.90;;;;;;4990928;28;20051;-79
2023/11/23 09:02:53;;;;;;;3.15;1.63;;;10.00;99.90;;;;;;4991472;28;20117;-79
2023/11/23 09:05:20;;;;;;;2.55;1.52;;;10.00;99.90;;;;;;4994172;28;20463;-79
2023/11/23 09:07:47;;;;;;;2.65;1.70;;;10.00;99.90;;;;;;4994353;28;20125;-79
2023/11/23 09:10:12;;;;;;;3.88;1.70;;;10.00;99.90;;;;;;4995754;28;20386;-79
2023/11/23 09:12:38;;;;;;;2.45;1.73;;;10.10;99.90;;;;;;4994959;28;20110;-80
2023/11/23 09:15:05;;;;;;;5.95;1.83;;;10.10;99.90;;;;;;4992827;28;20368;-79
2023/11/23 09:17:33;;;;;;;2.15;1.25;;;10.00;99.90;;;;;;4992905;28;20029;-79
2023/11/23 09:19:58;;;;;;;2.95;1.77;;;10.10;99.90;;;;;;4993547;28;20026;-80
2023/11/23 09:22:24;;;;;;;1.77;1.15;;;10.10;99.90;;;;;;4992422;28;20402;-79
2023/11/23 09:24:50;;;;;;;4.53;2.22;;;10.10;99.90;;;;;;4997264;28;20426;-79
2023/11/23 09:27:16;;;;;;;4.57;1.60;;;10.10;99.90;;;;;;4992385;28;20042;-79
2023/11/23 09:29:42;;;;;;;2.67;1.73;;;10.10;99.90;;;;;;4990209;28;20038;-79
2023/11/23 09:32:08;;;;;;;2.22;1.25;;;10.10;99.90;;;;;;4989255;28;20026;-80
2023/11/23 09:34:34;;;;;;;2.53;1.17;;;10.20;99.90;;;;;;4992672;28;20109;-79
2023/11/23 09:37:00;;;;;;;4.25;1.30;;;10.20;99.90;;;;;;4992356;28;20118;-79
2023/11/23 09:39:27;;;;;;;4.18;1.25;;;10.20;99.90;;;;;;4994426;28;20027;-80
2023/11/23 09:41:57;;;;;;;2.28;1.13;;;10.20;99.90;;;;;;4993876;28;20494;-80
2023/11/23 09:44:28;;;;;;;5.07;1.42;;;10.20;99.90;;;;;;4990209;28;20093;-79
2023/11/23 09:46:55;;;;;;;2.20;1.13;;;10.30;99.90;;;;;;4992035;28;20051;-80
2023/11/23 09:49:21;;;;;;;3.45;1.05;;;10.40;99.90;;;;;;4993141;28;20041;-79
2023/11/23 09:51:48;;;;;;;2.25;0.85;;;10.30;99.90;;;;;;4991938;28;20487;-79
2023/11/23 09:54:18;;;;;;;1.50;0.93;;;10.40;99.90;;;;;;4993200;28;20182;-80
2023/11/23 09:56:45;;;;;;;1.43;1.07;;;10.40;99.90;;;;;;4993492;28;20391;-80
2023/11/23 09:59:11;;;;;;;1.73;1.10;;;10.50;99.70;;;;;;4991090;28;20030;-79
2023/11/23 10:01:43;;;;;;;2.47;1.50;;;10.50;99.70;;;;;;4987950;28;20034;-79
2023/11/23 10:04:09;;;;;;;2.17;1.17;;;10.50;99.40;;;;;;4992503;28;20105;-79
2023/11/23 10:06:34;;;;;;;1.50;0.98;;;10.60;99.00;;;;;;4993160;28;20109;-79
2023/11/23 10:09:00;;;;;;;5.28;1.33;;;10.60;99.20;;;;;;4991723;28;20030;-79
2023/11/23 10:11:29;;;;;;;1.42;0.98;;;10.60;99.10;;;;;;4992777;28;20026;-80
2023/11/23 10:13:54;;;;;;;1.08;0.70;;;10.60;99.00;;;;;;4993494;28;20022;-79
2023/11/23 10:16:20;;;;;;;2.30;0.98;;;10.70;98.80;;;;;;4988447;28;20039;-79
2023/11/23 10:18:46;;;;;;;1.50;0.80;;;10.60;99.00;;;;;;4992686;28;20060;-79
2023/11/23 10:21:12;;;;;;;1.40;0.90;;;10.60;98.90;;;;;;4991760;28;20033;-78
2023/11/23 10:23:40;;;;;;;1.05;0.70;;;10.70;98.90;;;;;;4992186;28;20030;-80
2023/11/23 10:26:07;;;;;;;2.55;1.23;;;10.70;98.70;;;;;;4987975;28;20438;-80
2023/11/23 10:28:38;;;;;;;5.35;1.08;;;10.70;98.70;;;;;;4990671;28;20101;-79
2023/11/23 10:31:05;;;;;;;4.47;1.42;;;10.70;98.60;;;;;;4990586;28;20026;-80
2023/11/23 10:33:33;;;;;;;2.35;1.02;;;10.70;98.80;;;;;;4991956;28;20036;-79
2023/11/23 10:36:05;;;;;;;1.85;0.90;;;10.80;98.60;;;;;;4989619;28;20022;-80
2023/11/23 10:38:38;;;;;;;3.53;0.93;;;10.80;98.50;;;;;;4992007;28;20034;-79
2023/11/23 10:41:06;;;;;;;2.38;0.82;;;10.80;98.30;;;;;;4988087;28;20460;-80
2023/11/23 10:43:38;;;;;;;1.77;1.08;;;10.90;97.80;;;;;;4991085;28;20046;-80
2023/11/23 10:46:08;;;;;;;2.63;0.95;;;10.80;98.00;;;;;;4989270;28;20065;-79
2023/11/23 10:48:35;;;;;;;2.33;0.90;;;11.00;97.70;;;;;;4990960;28;20026;-80
2023/11/23 10:51:05;;;;;;;4.68;1.00;;;10.90;97.80;;;;;;4991650;28;20451;-79
2023/11/23 10:53:31;;;;;;;1.88;0.93;;;11.00;97.50;;;;;;4991218;28;20041;-79
2023/11/23 10:56:19;;;;;;;0.60;0.60;;;10.90;97.50;;;;;;4989519;28;20045;-79
2023/11/23 10:58:49;;;;;;;1.92;0.90;;;11.00;97.50;;;;;;4987557;28;20079;-78
2023/11/23 11:01:21;;;;;;;0.98;0.63;;;10.90;97.40;;;;;;4990665;28;20494;-79
2023/11/23 11:03:48;;;;;;;2.78;0.75;;;11.10;96.90;;;;;;4989432;28;20045;-79
2023/11/23 11:06:16;;;;;;;1.77;0.75;;;11.10;96.80;;;;;;4990970;28;20038;-80
2023/11/23 11:08:49;;;;;;;3.15;1.02;;;11.10;96.50;;;;;;4991194;28;20076;-79
2023/11/23 11:11:24;;;;;;;1.27;0.60;;;11.10;96.60;;;;;;4988265;28;20031;-79
2023/11/23 11:14:02;;;;;;;2.75;0.52;;;11.20;96.20;;;;;;4990998;28;20573;-79
2023/11/23 11:16:35;;;;;;;3.47;1.23;;;11.30;96.00;;;;;;4985315;28;20041;-78
2023/11/23 11:19:07;;;;;;;1.42;0.80;;;11.30;96.00;;;;;;4989538;28;20036;-80
2023/11/23 11:21:47;;;;;;;1.20;0.68;;;11.30;95.70;;;;;;4987904;28;20116;-79
2023/11/23 11:24:21;;;;;;;3.60;0.68;;;11.30;96.20;;;;;;4992627;28;20061;-78
2023/11/23 11:26:48;;;;;;;0.80;0.73;;;11.30;95.80;;;;;;4988421;28;20053;-79
2023/11/23 11:29:18;;;;;;;2.75;1.05;;;11.30;95.90;;;;;;4989647;28;20084;-80
2023/11/23 11:31:48;;;;;;;1.77;0.90;;;11.30;96.10;;;;;;4991559;28;20061;-80
2023/11/23 11:34:21;;;;;;;3.30;1.20;;;11.20;96.10;;;;;;4989810;28;20054;-79
2023/11/23 11:37:07;;;;;;;1.73;0.75;;;11.30;96.10;;;;;;4989516;28;20035;-79
2023/11/23 11:39:36;;;;;;;3.00;0.50;;;11.30;95.70;;;;;;4990681;28;20030;-80
2023/11/23 11:42:03;;;;;;;1.77;0.55;;;11.40;95.70;;;;;;4991615;28;20134;-79
2023/11/23 11:44:30;;;;;;;0.90;0.60;;;11.30;95.60;;;;;;4988017;28;20031;-80
2023/11/23 11:46:56;;;;;;;1.63;1.05;;;11.30;96.00;;;;;;4984269;28;20057;-80
2023/11/23 11:49:24;;;;;;;1.75;0.90;;;11.30;95.40;;;;;;4986659;28;20034;-79
2023/11/23 11:51:49;;;;;;;2.45;1.00;;;11.40;95.40;;;;;;4990263;28;20036;-80
2023/11/23 11:54:19;;;;;;;1.60;0.65;;;11.40;95.40;;;;;;4991352;28;20113;-81
2023/11/23 11:56:52;;;;;;;0.50;0.50;;;11.40;95.30;;;;;;4990704;28;20073;-81
2023/11/23 11:59:22;;;;;;;2.15;0.82;;;11.40;95.50;;;;;;4988762;28;20034;-79
2023/11/23 12:01:48;;;;;;;3.93;0.50;;;11.50;95.10;;;;;;4983164;28;20249;-80
2023/11/23 12:04:16;;;;;;;3.45;0.60;;;11.50;95.10;;;;;;4990425;28;20041;-81
2023/11/23 12:06:44;;;;;;;4.88;0.80;;;11.50;95.20;;;;;;4990490;28;20321;-79
2023/11/23 12:09:19;;;;;;;5.57;0.77;;;11.40;95.30;;;;;;4989808;28;20442;-84
2023/11/23 12:11:45;;;;;;;1.45;0.75;;;11.50;95.00;;;;;;4985612;28;20030;-83
2023/11/23 12:14:11;;;;;;;2.72;1.23;;;11.50;94.90;;;;;;4989167;28;20679;-84
2023/11/23 12:16:37;;;;;;;1.55;1.08;;;11.50;95.20;;;;;;4981682;28;20030;-84
2023/11/23 12:19:24;;;;;;;1.02;0.93;;;11.50;95.30;;;;;;4986806;28;20034;-84
2023/11/23 12:21:57;;;;;;;0.98;0.47;;;11.50;95.10;;;;;;4989508;28;20038;-83
2023/11/23 12:24:25;;;;;;;0.40;0.30;;;11.60;95.10;;;;;;4986824;28;20054;-84
2023/11/23 12:26:52;;;;;;;2.15;1.10;;;11.50;95.10;;;;;;4992783;28;20034;-83
2023/11/23 12:29:22;;;;;;;3.13;0.65;;;11.60;95.00;;;;;;4990761;28;20027;-84
2023/11/23 12:31:48;;;;;;;2.88;0.90;;;11.60;95.10;;;;;;4989794;28;20109;-84
2023/11/23 12:34:13;;;;;;;0.50;0.47;;;11.50;95.20;;;;;;4990681;28;20041;-85
2023/11/23 12:36:39;;;;;;;2.75;1.15;;;11.50;95.30;;;;;;4989498;28;20034;-84
2023/11/23 12:39:05;;;;;;;1.67;0.70;;;11.50;95.40;;;;;;4994172;28;20507;-86
2023/11/23 12:41:30;;;;;;;1.75;0.63;;;11.60;95.50;;;;;;4985010;28;22549;-84
2023/11/23 12:43:55;;;;;;;2.47;0.70;;;11.50;95.80;;;;;;4986263;28;20510;-85
2023/11/23 12:46:21;;;;;;;1.13;0.57;;;11.50;95.70;;;;;;4990947;28;20039;-83
2023/11/23 12:48:48;;;;;;;2.63;0.65;;;11.50;96.20;;;;;;4986379;28;20039;-85